Westover, New York
Current Conditions -  °F | °C
As of 8:53 PM on Wednesday 17 Dec 2014 (Local Time) from KBGM Reporting Station
Overcast Overcast  
Wind Chill: -6°   Ceiling: 1900
Heat Index: -1°   Visibility: 10mi
Dew Point: -3°   Wind: 12mph
Humidity: 85%   Direction: 290°WNW
Pressure: 29.87"   Gusts: 26mph
Location:  42.1768°N, 76.0035°W
Report Text: KBGM 180153Z 29010G23KT 250V320 10SM BKN019 OVC025 M01/M03 A2987 RMK AO2 SLP129 T10061028
Loading
Personal Weather Stations






























Interactive Weather Map New forecast layout! Learn more

10-Day Weather Forecast

Advertisements
Track Severe Weather on mobile